createdAt,value
2015-09-02T12:58:26.078Z,100851
2015-09-02T12:58:36.921Z,100851
2015-09-02T12:58:48.078Z,100837
2015-09-02T12:58:58.546Z,100851
2015-09-02T12:59:09.018Z,100848
2015-09-02T12:59:19.502Z,100848
2015-09-02T12:59:29.909Z,100859
2015-09-02T12:59:40.362Z,100854
2015-09-02T12:59:51.627Z,100853
2015-09-02T13:00:02.099Z,100848
2015-09-02T13:00:12.584Z,100854
2015-09-02T13:00:23.052Z,100859
2015-09-02T13:00:33.521Z,100848
2015-09-02T13:00:43.990Z,100859
2015-09-02T13:00:54.459Z,100848
2015-09-02T13:01:04.946Z,100851
2015-09-02T13:01:15.430Z,100854
2015-09-02T13:01:25.883Z,100851
2015-09-02T13:01:36.337Z,100854
2015-09-02T13:01:46.790Z,100854
2015-09-02T13:01:57.743Z,100859
2015-09-02T13:02:08.215Z,100854
2015-09-02T13:02:18.761Z,100848
2015-09-02T13:02:29.230Z,100848
2015-09-02T13:02:39.730Z,100848
2015-09-02T13:02:50.261Z,100854
2015-09-02T13:03:00.780Z,100854
2015-09-02T13:03:11.264Z,100837
2015-09-02T13:03:21.796Z,100848
2015-09-02T13:03:32.343Z,100845
2015-09-02T13:03:42.827Z,100851
2015-09-02T13:03:53.389Z,100848
2015-09-02T13:04:03.891Z,100859
2015-09-02T13:04:14.376Z,100843
2015-09-02T13:04:24.891Z,100854
2015-09-02T13:04:35.329Z,100851
2015-09-02T13:04:45.860Z,100851
2015-09-02T13:04:56.329Z,100851
2015-09-02T13:05:06.785Z,100845
2015-09-02T13:05:17.269Z,100848
2015-09-02T13:05:27.660Z,100845
2015-09-02T13:05:38.144Z,100843
2015-09-02T13:05:48.613Z,100845
2015-09-02T13:05:59.660Z,100854
2015-09-02T13:06:10.132Z,100848
2015-09-02T13:06:20.554Z,100845
2015-09-02T13:06:30.976Z,100843
2015-09-02T13:06:41.476Z,100854
2015-09-02T13:06:52.007Z,100845
2015-09-02T13:07:02.492Z,100856
2015-09-02T13:07:12.977Z,100848
2015-09-02T13:07:23.586Z,100845
2015-09-02T13:07:34.055Z,100845
2015-09-02T13:07:44.555Z,100845
2015-09-02T13:07:55.086Z,100851
2015-09-02T13:08:05.511Z,100843
2015-09-02T13:08:15.964Z,100845
2015-09-02T13:08:26.448Z,100843
2015-09-02T13:08:36.917Z,100837
2015-09-02T13:08:47.401Z,100845
2015-09-02T13:08:57.870Z,100845
2015-09-02T13:09:08.341Z,100845
2015-09-02T13:09:18.857Z,100843
2015-09-02T13:09:29.310Z,100843
2015-09-02T13:09:39.825Z,100837
2015-09-02T13:09:50.263Z,100843
2015-09-02T13:10:00.669Z,100843
2015-09-02T13:10:11.140Z,100845
2015-09-02T13:10:21.609Z,100848
2015-09-02T13:10:32.077Z,100851
2015-09-02T13:10:42.546Z,100851
2015-09-02T13:10:53.046Z,100859
2015-09-02T13:11:03.530Z,100854
2015-09-02T13:11:14.032Z,100848
2015-09-02T13:11:24.454Z,100845
2015-09-02T13:11:34.923Z,100859
2015-09-02T13:11:45.345Z,100854
2015-09-02T13:11:55.798Z,100848
2015-09-02T13:12:06.941Z,100851
2015-09-02T13:12:17.472Z,100837
2015-09-02T13:12:28.019Z,100848
2015-09-02T13:12:38.534Z,100834
2015-09-02T13:12:49.034Z,100843
2015-09-02T13:12:59.550Z,100845
2015-09-02T13:13:10.021Z,100851
2015-09-02T13:13:20.505Z,100831
2015-09-02T13:13:30.990Z,100848
2015-09-02T13:13:41.490Z,100845
2015-09-02T13:13:51.990Z,100857
2015-09-02T13:14:02.427Z,100845
2015-09-02T13:14:12.898Z,100848
2015-09-02T13:14:23.351Z,100848
2015-09-02T13:14:33.820Z,100859
2015-09-02T13:14:44.257Z,100848
2015-09-02T13:14:54.726Z,100851
2015-09-02T13:15:05.648Z,100845
2015-09-02T13:15:16.134Z,100848
2015-09-02T13:15:26.650Z,100854
2015-09-02T13:15:37.150Z,100843
2015-09-02T13:15:47.619Z,100843
2015-09-02T13:15:58.119Z,100851
2015-09-02T13:16:08.604Z,100843
2015-09-02T13:16:19.104Z,100854
2015-09-02T13:16:29.557Z,100843
2015-09-02T13:16:40.073Z,100851
2015-09-02T13:16:50.557Z,100843
2015-09-02T13:17:01.088Z,100848
2015-09-02T13:17:11.590Z,100848
2015-09-02T13:17:22.075Z,100848
2015-09-02T13:17:32.575Z,100845
2015-09-02T13:17:43.075Z,100851
2015-09-02T13:17:53.559Z,100845
2015-09-02T13:18:04.043Z,100854
2015-09-02T13:18:14.577Z,100845
2015-09-02T13:18:25.030Z,100843
2015-09-02T13:18:35.499Z,100845
2015-09-02T13:18:45.967Z,100831
2015-09-02T13:18:56.436Z,100848
2015-09-02T13:19:06.905Z,100843
2015-09-02T13:19:17.360Z,100845
2015-09-02T13:19:27.844Z,100851
2015-09-02T13:19:38.344Z,100843
2015-09-02T13:19:48.844Z,100837
2015-09-02T13:19:59.735Z,100848
2015-09-02T13:20:10.221Z,100848
2015-09-02T13:20:20.706Z,100837
2015-09-02T13:20:31.190Z,100837
2015-09-02T13:20:41.643Z,100834
2015-09-02T13:20:52.549Z,100848
2015-09-02T13:21:03.034Z,100843
2015-09-02T13:21:13.505Z,100848
2015-09-02T13:21:23.942Z,100854
2015-09-02T13:21:34.411Z,100843
2015-09-02T13:21:44.864Z,100845
2015-09-02T13:21:55.442Z,100848
2015-09-02T13:22:05.880Z,100848
2015-09-02T13:22:16.319Z,100845
2015-09-02T13:22:26.819Z,100843
2015-09-02T13:22:37.257Z,100837
2015-09-02T13:22:47.788Z,100843
2015-09-02T13:22:58.303Z,100834
2015-09-02T13:23:08.788Z,100834
2015-09-02T13:23:19.320Z,100845
2015-09-02T13:23:29.820Z,100837
2015-09-02T13:23:40.336Z,100845
2015-09-02T13:23:51.398Z,100848
2015-09-02T13:24:01.914Z,100834
2015-09-02T13:24:12.369Z,100837
2015-09-02T13:24:22.838Z,100837
2015-09-02T13:24:33.260Z,100834
2015-09-02T13:24:43.697Z,100834
2015-09-02T13:24:54.119Z,100837
2015-09-02T13:25:04.556Z,100845
2015-09-02T13:25:14.980Z,100851
2015-09-02T13:25:25.402Z,100848
2015-09-02T13:25:35.871Z,100834
2015-09-02T13:25:46.324Z,100837
2015-09-02T13:25:56.840Z,100829
2015-09-02T13:26:07.308Z,100832
2015-09-02T13:26:17.827Z,100832
2015-09-02T13:26:28.265Z,100832
2015-09-02T13:26:38.718Z,100832
2015-09-02T13:26:49.171Z,100829
2015-09-02T13:26:59.640Z,100834
2015-09-02T13:27:10.093Z,100843
2015-09-02T13:27:20.610Z,100832
2015-09-02T13:27:31.095Z,100851
2015-09-02T13:27:41.579Z,100843
2015-09-02T13:27:52.063Z,100832
2015-09-02T13:28:02.501Z,100832
2015-09-02T13:28:12.956Z,100837
2015-09-02T13:28:23.425Z,100835
2015-09-02T13:28:33.894Z,100835
2015-09-02T13:28:44.347Z,100837
2015-09-02T13:28:54.800Z,100837
2015-09-02T13:29:05.253Z,100835
2015-09-02T13:29:16.380Z,100837
2015-09-02T13:29:26.864Z,100832
2015-09-02T13:29:37.333Z,100832
2015-09-02T13:29:47.849Z,100835
2015-09-02T13:29:58.380Z,100845
2015-09-02T13:30:08.833Z,100837
2015-09-02T13:30:19.287Z,100826
2015-09-02T13:30:29.709Z,100843
2015-09-02T13:30:40.178Z,100837
2015-09-02T13:30:50.600Z,100843
2015-09-02T13:31:01.084Z,100837
2015-09-02T13:31:11.584Z,100843
2015-09-02T13:31:22.086Z,100832
2015-09-02T13:31:32.586Z,100837
2015-09-02T13:31:43.024Z,100835
2015-09-02T13:31:53.492Z,100843
2015-09-02T13:32:03.992Z,100843
2015-09-02T13:32:14.526Z,100843
2015-09-02T13:32:25.010Z,100843
2015-09-02T13:32:35.479Z,100837
2015-09-02T13:32:45.947Z,100843
2015-09-02T13:32:56.401Z,100835
2015-09-02T13:33:06.869Z,100843
2015-09-02T13:33:17.340Z,100837
2015-09-02T13:33:27.809Z,100843
2015-09-02T13:33:38.262Z,100837
2015-09-02T13:33:48.715Z,100829
2015-09-02T13:33:59.824Z,100851
2015-09-02T13:34:10.278Z,100845
2015-09-02T13:34:20.748Z,100851
2015-09-02T13:34:31.186Z,100854
2015-09-02T13:34:41.655Z,100843
2015-09-02T13:34:52.170Z,100835
2015-09-02T13:35:02.639Z,100843
2015-09-02T13:35:13.076Z,100845
2015-09-02T13:35:23.500Z,100843
2015-09-02T13:35:33.985Z,100843
2015-09-02T13:35:44.453Z,100843
2015-09-02T13:35:54.985Z,100843
2015-09-02T13:36:05.453Z,100843
2015-09-02T13:36:20.002Z,100835
2015-09-02T13:36:30.487Z,100835
2015-09-02T13:36:40.924Z,100838
2015-09-02T13:36:51.346Z,100832
2015-09-02T13:37:01.846Z,100838
2015-09-02T13:37:12.393Z,100845
2015-09-02T13:37:22.864Z,100848
2015-09-02T13:37:33.332Z,100838
2015-09-02T13:37:43.770Z,100843
2015-09-02T13:37:54.254Z,100845
2015-09-02T13:38:04.786Z,100845
2015-09-02T13:38:15.286Z,100843
2015-09-02T13:38:26.475Z,100843
2015-09-02T13:38:36.944Z,100845
2015-09-02T13:38:48.084Z,100838
2015-09-02T13:38:58.569Z,100848
2015-09-02T13:39:08.991Z,100832
2015-09-02T13:39:19.461Z,100826
2015-09-02T13:39:29.993Z,100843
2015-09-02T13:39:40.618Z,100838
2015-09-02T13:39:51.211Z,100838
2015-09-02T13:40:01.696Z,100838
2015-09-02T13:40:12.180Z,100829
2015-09-02T13:40:22.667Z,100835
2015-09-02T13:40:33.182Z,100838
2015-09-02T13:40:43.698Z,100826
2015-09-02T13:40:54.198Z,100829
2015-09-02T13:41:04.635Z,100845
2015-09-02T13:41:15.073Z,100835
2015-09-02T13:41:25.512Z,100832
2015-09-02T13:41:36.325Z,100832
2015-09-02T13:41:46.809Z,100843
2015-09-02T13:41:57.497Z,100835
2015-09-02T13:42:07.965Z,100832
2015-09-02T13:42:18.465Z,100838
2015-09-02T13:42:28.936Z,100835
2015-09-02T13:42:39.436Z,100835
2015-09-02T13:42:49.983Z,100826
2015-09-02T13:43:00.483Z,100829
2015-09-02T13:43:10.967Z,100829
2015-09-02T13:43:21.468Z,100835
2015-09-02T13:43:31.968Z,100835
2015-09-02T13:43:42.437Z,100826
2015-09-02T13:43:53.031Z,100832
2015-09-02T13:44:03.531Z,100826
2015-09-02T13:44:13.968Z,100823
2015-09-02T13:44:24.471Z,100832
2015-09-02T13:44:35.003Z,100829
2015-09-02T13:44:45.565Z,100826
2015-09-02T13:44:56.065Z,100823
2015-09-02T13:45:06.518Z,100835
2015-09-02T13:45:16.940Z,100829
2015-09-02T13:45:27.379Z,100838
2015-09-02T13:45:38.238Z,100838
2015-09-02T13:45:48.769Z,100832
2015-09-02T13:45:59.363Z,100829
2015-09-02T13:46:09.832Z,100829
2015-09-02T13:46:20.301Z,100823
2015-09-02T13:46:30.835Z,100835
2015-09-02T13:46:41.350Z,100844
2015-09-02T13:46:52.319Z,100823
2015-09-02T13:47:02.835Z,100835
2015-09-02T13:47:13.319Z,100826
2015-09-02T13:47:23.821Z,100820
2015-09-02T13:47:34.243Z,100823
2015-09-02T13:47:44.806Z,100817
2015-09-02T13:47:55.759Z,100817
2015-09-02T13:48:06.243Z,100829
2015-09-02T13:48:16.743Z,100829
2015-09-02T13:48:27.853Z,100823
2015-09-02T13:48:38.307Z,100823
2015-09-02T13:48:48.932Z,100823
2015-09-02T13:48:59.369Z,100823
2015-09-02T13:49:09.869Z,100820
2015-09-02T13:49:20.338Z,100823
2015-09-02T13:49:30.809Z,100814
2015-09-02T13:49:41.293Z,100820
2015-09-02T13:49:51.840Z,100823
2015-09-02T13:50:02.309Z,100826
2015-09-02T13:50:12.746Z,100823
2015-09-02T13:50:23.246Z,100826
2015-09-02T13:50:33.717Z,100829
2015-09-02T13:50:44.107Z,100812
2015-09-02T13:50:54.529Z,100820
2015-09-02T13:51:05.045Z,100829
2015-09-02T13:51:15.529Z,100820
2015-09-02T13:51:26.016Z,100817
2015-09-02T13:51:36.484Z,100829
2015-09-02T13:53:05.174Z,100826
2015-09-02T13:53:41.005Z,100826
2015-09-02T13:53:54.239Z,100823
2015-09-02T13:54:04.771Z,100814
2015-09-02T13:54:15.911Z,100829
2015-09-02T13:54:26.380Z,100820
2015-09-02T13:54:36.865Z,100826
2015-09-02T13:54:47.365Z,100817
2015-09-02T13:54:57.803Z,100817
2015-09-02T13:55:08.350Z,100814
2015-09-02T13:55:19.475Z,100817
2015-09-02T13:55:29.977Z,100820
2015-09-02T13:55:40.430Z,100826
2015-09-02T13:55:51.664Z,100814
2015-09-02T13:56:02.133Z,100820
2015-09-02T13:56:12.586Z,100817
2015-09-02T13:56:23.102Z,100829
2015-09-02T13:56:33.541Z,100814
2015-09-02T13:56:43.994Z,100820
2015-09-02T13:56:54.557Z,100809
2015-09-02T13:57:05.057Z,100806
2015-09-02T13:57:15.510Z,100823
2015-09-02T13:57:25.963Z,100812
2015-09-02T13:57:36.418Z,100823
2015-09-02T13:57:46.887Z,100812
2015-09-02T13:57:57.481Z,100814
2015-09-02T13:58:08.059Z,100812
2015-09-02T13:58:18.559Z,100806
2015-09-02T13:58:28.965Z,100812
2015-09-02T13:58:39.748Z,100812
2015-09-02T13:58:50.217Z,100814
2015-09-02T13:59:00.702Z,100806
2015-09-02T13:59:11.202Z,100812
2015-09-02T13:59:21.686Z,100812
2015-09-02T13:59:32.156Z,100809
2015-09-02T13:59:42.624Z,100814
2015-09-02T13:59:53.171Z,100803
2015-09-02T14:00:03.687Z,100809
2015-09-02T14:00:14.140Z,100803
2015-09-02T14:00:24.578Z,100806
2015-09-02T14:00:35.033Z,100809
2015-09-02T14:00:45.533Z,100814
2015-09-02T14:00:56.017Z,100812
2015-09-02T14:01:06.517Z,100814
2015-09-02T14:01:17.048Z,100809
2015-09-02T14:01:27.564Z,100812
2015-09-02T14:01:38.083Z,100812
2015-09-02T14:01:48.551Z,100803
2015-09-02T14:01:59.192Z,100806
2015-09-02T14:02:10.333Z,100812
2015-09-02T14:02:20.754Z,100814
2015-09-02T14:02:31.114Z,100817
2015-09-02T14:02:41.599Z,100812
2015-09-02T14:02:52.115Z,100803
2015-09-02T14:03:02.568Z,100809
2015-09-02T14:03:12.974Z,100806
2015-09-02T14:03:23.427Z,100809
2015-09-02T14:03:33.899Z,100806
2015-09-02T14:03:44.383Z,100806
2015-09-02T14:03:54.977Z,100806
2015-09-02T14:04:05.430Z,100806
2015-09-02T14:04:15.883Z,100797
2015-09-02T14:04:26.430Z,100812
2015-09-02T14:04:36.916Z,100803
2015-09-02T14:04:47.400Z,100803
2015-09-02T14:04:57.853Z,100797
2015-09-02T14:05:08.353Z,100800
2015-09-02T14:05:18.822Z,100812
2015-09-02T14:05:29.353Z,100803
2015-09-02T14:05:39.809Z,100809
2015-09-02T14:05:50.262Z,100809
2015-09-02T14:06:00.731Z,100809
2015-09-02T14:06:11.184Z,100812
2015-09-02T14:06:21.716Z,100797
2015-09-02T14:06:32.169Z,100806
2015-09-02T14:06:42.623Z,100812
2015-09-02T14:06:53.732Z,100809
2015-09-02T14:07:04.201Z,100800
2015-09-02T14:07:14.670Z,100806
2015-09-02T14:07:25.154Z,100809
2015-09-02T14:07:35.638Z,100806
2015-09-02T14:07:46.109Z,100809
2015-09-02T14:07:56.547Z,100809
2015-09-02T14:08:07.109Z,100806
2015-09-02T14:08:17.515Z,100803
2015-09-02T14:08:28.000Z,100812
2015-09-02T14:08:38.455Z,100809
2015-09-02T14:08:48.955Z,100809
2015-09-02T14:08:59.424Z,100803
2015-09-02T14:09:09.939Z,100806
2015-09-02T14:09:21.033Z,100812
2015-09-02T14:09:31.471Z,100809
2015-09-02T14:09:41.910Z,100812
2015-09-02T14:09:52.410Z,100803
2015-09-02T14:10:02.910Z,100800
2015-09-02T14:10:13.379Z,100809
2015-09-02T14:10:23.816Z,100809
2015-09-02T14:10:34.238Z,100812
2015-09-02T14:10:44.693Z,100803
2015-09-02T14:10:55.209Z,100806
2015-09-02T14:11:05.756Z,100806
2015-09-02T14:11:16.256Z,100806
2015-09-02T14:11:26.756Z,100806
2015-09-02T14:11:37.256Z,100806
2015-09-02T14:11:47.742Z,100809
2015-09-02T14:11:58.258Z,100812
2015-09-02T14:12:08.805Z,100812
2015-09-02T14:12:19.352Z,100812
2015-09-02T14:12:29.805Z,100814
2015-09-02T14:12:40.244Z,100800
2015-09-02T14:12:50.666Z,100803
2015-09-02T14:13:01.088Z,100800
2015-09-02T14:13:11.494Z,100806
2015-09-02T14:13:21.963Z,100795
2015-09-02T14:13:32.447Z,100809
2015-09-02T14:13:43.090Z,100803
2015-09-02T14:13:53.574Z,100800
2015-09-02T14:14:04.059Z,100803
2015-09-02T14:14:14.527Z,100806
2015-09-02T14:14:25.027Z,100797
2015-09-02T14:14:35.543Z,100795
2015-09-02T14:14:46.076Z,100803
2015-09-02T14:14:56.592Z,100797
2015-09-02T14:15:07.061Z,100795
2015-09-02T14:15:17.529Z,100795
2015-09-02T14:15:28.045Z,100800
2015-09-02T14:15:38.514Z,100795
2015-09-02T14:15:49.016Z,100795
2015-09-02T14:16:00.063Z,100797
2015-09-02T14:16:10.625Z,100795
2015-09-02T14:16:21.094Z,100803
2015-09-02T14:16:31.563Z,100795
2015-09-02T14:16:42.673Z,100795
2015-09-02T14:16:53.173Z,100803
2015-09-02T14:17:03.673Z,100795
2015-09-02T14:17:14.157Z,100797
2015-09-02T14:17:24.626Z,100797
2015-09-02T14:17:35.064Z,100781
2015-09-02T14:17:45.644Z,100786
2015-09-02T14:17:56.613Z,100784
2015-09-02T14:18:07.097Z,100789
2015-09-02T14:18:17.566Z,100795
2015-09-02T14:18:28.097Z,100792
2015-09-02T14:18:38.597Z,100789
2015-09-02T14:18:49.131Z,100778
2015-09-02T14:18:59.600Z,100795
2015-09-02T14:19:10.116Z,100797
2015-09-02T14:19:20.553Z,100797
2015-09-02T14:19:31.022Z,100792
2015-09-02T14:19:41.459Z,100803
2015-09-02T14:19:51.960Z,100795
2015-09-02T14:20:02.398Z,100797
2015-09-02T14:20:12.851Z,100795
2015-09-02T14:20:23.320Z,100792
2015-09-02T14:20:33.773Z,100797
2015-09-02T14:20:44.257Z,100795
2015-09-02T14:20:54.775Z,100792
2015-09-02T14:21:05.322Z,100795
2015-09-02T14:21:15.822Z,100797
2015-09-02T14:21:26.962Z,100792
2015-09-02T14:21:37.462Z,100797
2015-09-02T14:21:47.950Z,100792
2015-09-02T14:21:58.403Z,100797
2015-09-02T14:22:08.950Z,100806
2015-09-02T14:22:19.434Z,100797
2015-09-02T14:22:29.903Z,100792
2015-09-02T14:22:40.387Z,100803
2015-09-02T14:22:50.983Z,100789
2015-09-02T14:23:01.530Z,100792
2015-09-02T14:23:12.592Z,100795
2015-09-02T14:23:23.045Z,100797
2015-09-02T14:23:33.530Z,100797
2015-09-02T14:23:43.999Z,100797
2015-09-02T14:23:54.515Z,100795
2015-09-02T14:24:04.984Z,100792
2015-09-02T14:24:15.484Z,100795
2015-09-02T14:24:25.953Z,100797
2015-09-02T14:24:36.437Z,100797
2015-09-02T14:24:47.017Z,100795
2015-09-02T14:24:57.548Z,100792
2015-09-02T14:25:08.033Z,100795
2015-09-02T14:25:18.470Z,100795
2015-09-02T14:25:28.908Z,100797
2015-09-02T14:25:39.423Z,100792
2015-09-02T14:25:49.847Z,100797
2015-09-02T14:26:00.300Z,100800
2015-09-02T14:26:10.972Z,100795
2015-09-02T14:26:21.582Z,100792
2015-09-02T14:26:32.144Z,100800
2015-09-02T14:26:42.629Z,100806
2015-09-02T14:26:53.115Z,100797
2015-09-02T14:27:03.599Z,100806
2015-09-02T14:27:14.068Z,100800
2015-09-02T14:27:24.646Z,100797
2015-09-02T14:27:35.334Z,100789
2015-09-02T14:27:45.787Z,100784
2015-09-02T14:27:56.258Z,100797
2015-09-02T14:28:07.554Z,100800
2015-09-02T14:28:18.070Z,100795
2015-09-02T14:28:28.539Z,100795
2015-09-02T14:28:39.648Z,100795
2015-09-02T14:28:50.088Z,100792
2015-09-02T14:29:00.494Z,100797
2015-09-02T14:29:11.275Z,100797
2015-09-02T14:29:21.806Z,100795
2015-09-02T14:29:32.244Z,100784
2015-09-02T14:29:42.666Z,100800
2015-09-02T14:29:53.199Z,100795
2015-09-02T14:30:03.621Z,100800
2015-09-02T14:30:14.090Z,100797
2015-09-02T14:30:24.558Z,100800
2015-09-02T14:30:34.965Z,100797
2015-09-02T14:30:45.387Z,100784
2015-09-02T14:30:55.904Z,100800
2015-09-02T14:31:06.435Z,100797
2015-09-02T14:31:16.889Z,100803
2015-09-02T14:31:27.373Z,100784
2015-09-02T14:31:37.857Z,100800
2015-09-02T14:31:48.310Z,100806
2015-09-02T14:31:58.828Z,100803
2015-09-02T14:32:09.297Z,100795
2015-09-02T14:32:19.719Z,100795
2015-09-02T14:32:30.172Z,100800
2015-09-02T14:32:40.656Z,100806
2015-09-02T14:32:51.110Z,100800
2015-09-02T14:33:01.610Z,100803
2015-09-02T14:33:12.079Z,100800
2015-09-02T14:33:22.532Z,100784
2015-09-02T14:33:33.017Z,100789
2015-09-02T14:33:43.438Z,100803
2015-09-02T14:33:53.957Z,100778
2015-09-02T14:34:04.488Z,100797
2015-09-02T14:34:14.926Z,100789
2015-09-02T14:34:25.379Z,100786
2015-09-02T14:34:35.988Z,100789
2015-09-02T14:34:46.598Z,100789
2015-09-02T14:34:57.022Z,100789
2015-09-02T14:35:07.490Z,100789
2015-09-02T14:35:17.975Z,100789
2015-09-02T14:35:28.428Z,100792
2015-09-02T14:35:38.881Z,100792
2015-09-02T14:35:49.365Z,100803
2015-09-02T14:35:59.867Z,100789
2015-09-02T14:36:10.305Z,100792
2015-09-02T14:36:21.180Z,100800
2015-09-02T14:36:32.320Z,100792
2015-09-02T14:36:42.789Z,100792
2015-09-02T14:36:53.228Z,100789
2015-09-02T14:37:03.993Z,100803
2015-09-02T14:37:14.665Z,100789
2015-09-02T14:37:25.165Z,100789
2015-09-02T14:37:35.650Z,100800
2015-09-02T14:37:46.087Z,100789
2015-09-02T14:37:57.543Z,100800
2015-09-02T14:38:07.996Z,100795
2015-09-02T14:38:18.637Z,100786
2015-09-02T14:38:29.137Z,100800
2015-09-02T14:38:39.574Z,100803
2015-09-02T14:38:50.059Z,100789
2015-09-02T14:39:00.998Z,100789
2015-09-02T14:39:11.451Z,100789
2015-09-02T14:39:21.920Z,100789
2015-09-02T14:39:32.420Z,100784
2015-09-02T14:39:42.905Z,100789
2015-09-02T14:39:53.453Z,100800
2015-09-02T14:40:04.141Z,100800
2015-09-02T14:40:14.547Z,100789
2015-09-02T14:40:25.047Z,100789
2015-09-02T14:40:35.547Z,100789
2015-09-02T14:40:46.032Z,100803
2015-09-02T14:40:56.548Z,100792
2015-09-02T14:41:07.423Z,100792
2015-09-02T14:41:17.954Z,100792
2015-09-02T14:41:28.501Z,100792
2015-09-02T14:41:38.923Z,100789
2015-09-02T14:41:49.423Z,100792
2015-09-02T14:42:00.316Z,100792
2015-09-02T14:42:10.800Z,100792
2015-09-02T14:42:21.300Z,100792
2015-09-02T14:42:31.863Z,100795
2015-09-02T14:42:43.035Z,100795
2015-09-02T14:42:53.521Z,100789
2015-09-02T14:43:03.974Z,100789
2015-09-02T14:43:14.443Z,100795
2015-09-02T14:43:24.849Z,100795
2015-09-02T14:43:35.427Z,100795
2015-09-02T14:43:45.943Z,100795
2015-09-02T14:43:56.898Z,100792
2015-09-02T14:44:07.414Z,100795
2015-09-02T14:44:17.929Z,100792
2015-09-02T14:44:28.414Z,100792
2015-09-02T14:44:38.867Z,100792
2015-09-02T14:44:49.414Z,100792
2015-09-02T14:44:59.916Z,100795
2015-09-02T14:45:10.353Z,100792
2015-09-02T14:45:20.806Z,100795
2015-09-02T14:45:31.244Z,100795
2015-09-02T14:45:41.853Z,100792
2015-09-02T14:45:52.337Z,100792
2015-09-02T14:46:02.808Z,100803
2015-09-02T14:46:13.277Z,100795
2015-09-02T14:46:23.761Z,100792
2015-09-02T14:46:34.230Z,100792
2015-09-02T14:46:44.699Z,100795
2015-09-02T14:46:55.341Z,100795
2015-09-02T14:47:06.123Z,100795
2015-09-02T14:47:16.591Z,100795
2015-09-02T14:47:27.091Z,100795
2015-09-02T14:47:37.576Z,100803
2015-09-02T14:47:49.310Z,100795
2015-09-02T14:47:59.811Z,100792
2015-09-02T14:48:10.358Z,100789
2015-09-02T14:48:20.842Z,100795
2015-09-02T14:48:31.327Z,100795
2015-09-02T14:48:41.936Z,100809
2015-09-02T14:48:52.436Z,100795
2015-09-02T14:49:02.955Z,100795
2015-09-02T14:49:13.424Z,100789
2015-09-02T14:49:23.924Z,100795
2015-09-02T14:49:34.424Z,100792
2015-09-02T14:49:45.095Z,100797
2015-09-02T14:49:55.830Z,100797
2015-09-02T14:50:06.268Z,100797
2015-09-02T14:50:16.846Z,100800
2015-09-02T14:50:27.315Z,100800
2015-09-02T14:50:38.096Z,100797
2015-09-02T14:50:48.753Z,100792
2015-09-02T14:50:59.209Z,100795
2015-09-02T14:51:09.693Z,100792
2015-09-02T14:51:20.178Z,100789
2015-09-02T14:51:30.693Z,100800
2015-09-02T14:51:41.162Z,100787
2015-09-02T14:51:51.740Z,100787
2015-09-02T14:52:02.444Z,100789
2015-09-02T14:52:12.913Z,100784
2015-09-02T14:52:23.382Z,100792
2015-09-02T14:52:33.850Z,100787
2015-09-02T14:52:44.288Z,100792
2015-09-02T14:52:54.741Z,100787
2015-09-02T14:53:05.243Z,100784
2015-09-02T14:53:15.712Z,100784
2015-09-02T14:53:26.212Z,100784
2015-09-02T14:53:36.696Z,100778
2015-09-02T14:53:47.227Z,100784
2015-09-02T14:53:57.696Z,100778
2015-09-02T14:54:08.184Z,100792
2015-09-02T14:54:18.684Z,100781
2015-09-02T14:54:29.215Z,100778
2015-09-02T14:54:39.715Z,100784
2015-09-02T14:54:50.246Z,100787
2015-09-02T14:55:00.763Z,100787
2015-09-02T14:55:11.247Z,100797
2015-09-02T14:55:21.747Z,100775
2015-09-02T14:55:32.231Z,100781
2015-09-02T14:55:42.950Z,100792
2015-09-02T14:55:54.169Z,100778
2015-09-02T14:56:04.672Z,100792
2015-09-02T14:56:15.234Z,100792
2015-09-02T14:56:25.719Z,100784
2015-09-02T14:56:36.281Z,100784
2015-09-02T14:56:46.781Z,100784
2015-09-02T14:56:57.391Z,100790
2015-09-02T14:57:08.283Z,100772
2015-09-02T14:57:19.440Z,100775
2015-09-02T14:57:30.580Z,100787
2015-09-02T14:57:41.205Z,100787
2015-09-02T14:57:51.690Z,100787
2015-09-02T14:58:02.159Z,100787
2015-09-02T14:58:12.675Z,100775
2015-09-02T14:58:23.159Z,100781
2015-09-02T14:58:33.941Z,100778
2015-09-02T14:58:44.441Z,100787
2015-09-02T14:58:54.941Z,100790
2015-09-02T14:59:05.458Z,100778
2015-09-02T14:59:15.911Z,100778
2015-09-02T14:59:26.427Z,100778
2015-09-02T14:59:36.911Z,100778
2015-09-02T14:59:47.458Z,100775
2015-09-02T14:59:58.052Z,100778
2015-09-02T15:00:08.679Z,100775
2015-09-02T15:00:19.195Z,100787
2015-09-02T15:00:29.695Z,100781
2015-09-02T15:00:40.195Z,100778
2015-09-02T15:00:50.679Z,100784
2015-09-02T15:01:01.163Z,100781
2015-09-02T15:01:11.681Z,100790
2015-09-02T15:01:22.150Z,100790
2015-09-02T15:01:32.618Z,100778
2015-09-02T15:01:43.134Z,100775
2015-09-02T15:01:53.712Z,100775
2015-09-02T15:02:04.338Z,100775
2015-09-02T15:02:15.463Z,100784
2015-09-02T15:02:25.948Z,100778
2015-09-02T15:02:36.416Z,100784
2015-09-02T15:02:46.901Z,100781
2015-09-02T15:02:57.432Z,100784
2015-09-02T15:03:09.138Z,100781
2015-09-02T15:03:19.591Z,100781
2015-09-02T15:03:30.060Z,100778
2015-09-02T15:03:40.576Z,100787
2015-09-02T15:03:51.201Z,100787
2015-09-02T15:04:01.685Z,100784
2015-09-02T15:04:12.109Z,100769
2015-09-02T15:04:22.609Z,100778
2015-09-02T15:04:33.734Z,100769
2015-09-02T15:04:44.203Z,100778
2015-09-02T15:04:54.656Z,100769
2015-09-02T15:05:05.117Z,100775
2015-09-02T15:05:15.586Z,100784
2015-09-02T15:05:26.101Z,100775
2015-09-02T15:05:36.539Z,100775
2015-09-02T15:05:47.007Z,100784
2015-09-02T15:05:57.539Z,100787
2015-09-02T15:06:08.019Z,100778
2015-09-02T15:06:18.473Z,100781
2015-09-02T15:06:28.863Z,100778
2015-09-02T15:06:39.301Z,100778
2015-09-02T15:06:49.832Z,100778
2015-09-02T15:07:00.863Z,100781
2015-09-02T15:07:11.268Z,100775
2015-09-02T15:07:21.705Z,100784
2015-09-02T15:07:32.127Z,100772
2015-09-02T15:07:42.596Z,100778
2015-09-02T15:07:53.127Z,100769
2015-09-02T15:08:03.612Z,100778
2015-09-02T15:08:14.078Z,100778
2015-09-02T15:08:24.515Z,100772
2015-09-02T15:08:34.968Z,100778
2015-09-02T15:08:45.453Z,100769
2015-09-02T15:08:55.921Z,100781
2015-09-02T15:09:06.390Z,100760
2015-09-02T15:09:16.872Z,100778
2015-09-02T15:09:27.341Z,100778
2015-09-02T15:09:37.794Z,100784
2015-09-02T15:09:48.294Z,100784
2015-09-02T15:09:59.684Z,100775
2015-09-02T15:10:10.350Z,100769
2015-09-02T15:10:21.725Z,100781
2015-09-02T15:10:32.178Z,100766
2015-09-02T15:10:42.647Z,100769
2015-09-02T15:10:53.037Z,100778
2015-09-02T15:11:03.537Z,100775
2015-09-02T15:11:14.012Z,100769
2015-09-02T15:11:24.465Z,100769
2015-09-02T15:11:34.949Z,100769